createdAt,value
2019-05-07T00:01:27.840Z,66.40
2019-05-07T00:03:56.587Z,66.51
2019-05-07T00:06:25.326Z,66.76
2019-05-07T00:08:54.000Z,67.05
2019-05-07T00:11:22.785Z,66.98
2019-05-07T00:13:52.264Z,66.92
2019-05-07T00:16:22.390Z,66.86
2019-05-07T00:18:52.552Z,66.93
2019-05-07T00:21:23.324Z,66.87
2019-05-07T00:23:52.652Z,66.82
2019-05-07T00:26:22.548Z,66.71
2019-05-07T00:28:52.727Z,66.66
2019-05-07T00:31:23.308Z,66.55
2019-05-07T00:33:52.676Z,66.59
2019-05-07T00:36:39.279Z,66.66
2019-05-07T00:39:18.787Z,66.93
2019-05-07T00:41:52.302Z,66.94
2019-05-07T00:44:22.089Z,66.93
2019-05-07T00:46:52.537Z,66.69
2019-05-07T00:49:23.201Z,66.62
2019-05-07T00:51:52.006Z,66.54
2019-05-07T00:54:22.998Z,66.68
2019-05-07T00:56:52.202Z,66.88
2019-05-07T00:59:22.586Z,67.32
2019-05-07T01:01:52.803Z,67.40
2019-05-07T01:04:22.978Z,67.59
2019-05-07T01:06:53.200Z,67.63
2019-05-07T01:09:22.875Z,67.58
2019-05-07T01:11:52.502Z,67.52
2019-05-07T01:14:22.886Z,67.70
2019-05-07T01:16:52.869Z,67.73
2019-05-07T01:19:22.065Z,67.47
2019-05-07T01:21:52.502Z,67.42
2019-05-07T01:24:23.275Z,67.39
2019-05-07T01:26:53.018Z,67.25
2019-05-07T01:29:22.612Z,67.16
2019-05-07T01:31:58.892Z,67.08
2019-05-07T01:34:29.205Z,67.16
2019-05-07T01:36:57.968Z,67.17
2019-05-07T01:39:26.700Z,67.07
2019-05-07T01:41:55.490Z,66.94
2019-05-07T01:44:24.159Z,67.27
2019-05-07T01:46:54.815Z,67.47
2019-05-07T01:49:24.206Z,67.36
2019-05-07T01:51:53.177Z,67.16
2019-05-07T01:54:23.832Z,67.13
2019-05-07T01:56:52.425Z,67.05
2019-05-07T01:59:22.513Z,66.95
2019-05-07T02:01:53.081Z,66.97
2019-05-07T02:04:23.434Z,66.98
2019-05-07T02:07:11.943Z,67.16
2019-05-07T02:09:42.563Z,67.37
2019-05-07T02:12:15.820Z,67.34
2019-05-07T02:14:44.520Z,67.26
2019-05-07T02:17:13.709Z,67.01
2019-05-07T02:19:42.638Z,67.08
2019-05-07T02:22:13.283Z,67.28
2019-05-07T02:24:43.381Z,67.27
2019-05-07T02:27:12.683Z,67.40
2019-05-07T02:29:43.040Z,67.35
2019-05-07T02:32:13.382Z,67.16
2019-05-07T02:34:44.189Z,67.16
2019-05-07T02:37:14.274Z,67.53
2019-05-07T02:39:44.706Z,67.96
2019-05-07T02:42:13.460Z,68.17
2019-05-07T02:45:03.704Z,68.18
2019-05-07T02:47:33.196Z,68.15
2019-05-07T02:50:03.814Z,67.63
2019-05-07T02:52:53.722Z,67.27
2019-05-07T02:55:38.134Z,67.20
2019-05-07T02:58:06.812Z,67.12
2019-05-07T03:00:35.555Z,66.99
2019-05-07T03:03:04.765Z,67.14
2019-05-07T03:05:34.936Z,67.68
2019-05-07T03:08:04.122Z,68.42
2019-05-07T03:10:34.029Z,68.21
2019-05-07T03:13:03.423Z,68.53
2019-05-07T03:15:35.362Z,68.57
2019-05-07T03:18:04.057Z,68.16
2019-05-07T03:20:35.809Z,67.93
2019-05-07T03:23:05.130Z,67.76
2019-05-07T03:25:54.197Z,67.63
2019-05-07T03:28:23.808Z,67.58
2019-05-07T03:31:05.969Z,67.55
2019-05-07T03:33:37.948Z,67.43
2019-05-07T03:36:08.415Z,67.42
2019-05-07T03:38:37.162Z,67.65
2019-05-07T03:41:05.836Z,68.30
2019-05-07T03:43:34.703Z,68.64
2019-05-07T03:46:05.100Z,68.63
2019-05-07T03:48:35.426Z,68.81
2019-05-07T03:51:04.087Z,68.18
2019-05-07T03:53:33.855Z,67.63
2019-05-07T03:56:04.221Z,67.53
2019-05-07T03:58:34.122Z,67.49
2019-05-07T04:01:04.257Z,67.73
2019-05-07T04:03:34.253Z,68.18
2019-05-07T04:06:03.940Z,68.29
2019-05-07T04:08:33.544Z,68.22
2019-05-07T04:11:03.869Z,68.22
2019-05-07T04:13:33.698Z,68.36
2019-05-07T04:16:04.129Z,68.63
2019-05-07T04:18:33.468Z,68.73
2019-05-07T04:21:03.681Z,68.48
2019-05-07T04:23:34.134Z,68.52
2019-05-07T04:28:59.319Z,69.02
2019-05-07T04:31:29.722Z,68.91
2019-05-07T04:34:00.055Z,69.06
2019-05-07T04:36:30.197Z,69.20
2019-05-07T04:38:58.922Z,69.26
2019-05-07T04:41:32.655Z,69.70
2019-05-07T04:44:03.145Z,69.55
2019-05-07T04:46:33.380Z,69.53
2019-05-07T04:49:03.698Z,69.77
2019-05-07T04:51:38.948Z,70.12
2019-05-07T04:54:07.733Z,70.68
2019-05-07T04:56:36.390Z,70.61
2019-05-07T04:59:05.044Z,70.90
2019-05-07T05:01:35.379Z,71.31
2019-05-07T05:04:21.044Z,71.48
2019-05-07T05:06:34.940Z,71.59
2019-05-07T05:09:05.718Z,71.66
2019-05-07T05:11:34.450Z,72.05
2019-05-07T05:14:07.346Z,72.23
2019-05-07T05:16:33.670Z,72.39
2019-05-07T05:19:02.629Z,72.45
2019-05-07T05:21:49.392Z,72.69
2019-05-07T05:27:12.211Z,73.20
2019-05-07T05:29:42.974Z,72.87
2019-05-07T05:32:11.986Z,72.91
2019-05-07T05:34:42.544Z,72.98
2019-05-07T05:37:11.943Z,73.25
2019-05-07T05:39:42.704Z,73.24
2019-05-07T05:42:13.008Z,73.09
2019-05-07T05:44:41.851Z,73.28
2019-05-07T05:47:11.949Z,73.40
2019-05-07T05:49:42.817Z,73.29
2019-05-07T05:52:15.984Z,73.42
2019-05-07T05:54:49.249Z,73.61
2019-05-07T05:57:23.144Z,73.35
2019-05-07T06:00:02.144Z,73.12
2019-05-07T06:02:32.402Z,73.47
2019-05-07T06:05:19.566Z,73.55
2019-05-07T06:08:04.958Z,73.19
2019-05-07T06:10:44.185Z,73.39
2019-05-07T06:13:22.584Z,73.22
2019-05-07T06:15:52.848Z,72.70
2019-05-07T06:18:41.971Z,71.90
2019-05-07T06:21:28.854Z,72.22
2019-05-07T06:24:02.368Z,72.48
2019-05-07T06:26:31.907Z,72.36
2019-05-07T06:29:02.436Z,72.73
2019-05-07T06:31:47.214Z,71.90
2019-05-07T06:34:15.924Z,72.46
2019-05-07T06:36:44.600Z,72.23
2019-05-07T06:39:15.204Z,72.15
2019-05-07T06:41:48.313Z,70.54
2019-05-07T06:44:18.616Z,70.36
2019-05-07T06:46:47.386Z,70.55
2019-05-07T06:49:16.146Z,70.69
2019-05-07T06:51:47.686Z,70.92
2019-05-07T06:54:15.249Z,69.99
2019-05-07T06:56:43.917Z,69.75
2019-05-07T06:59:17.041Z,67.04
2019-05-07T07:01:56.188Z,64.28
2019-05-07T07:04:26.531Z,64.59
2019-05-07T07:06:56.960Z,63.96
2019-05-07T07:09:33.519Z,63.07
2019-05-07T07:12:25.971Z,60.54
2019-05-07T07:14:54.128Z,59.53
2019-05-07T07:17:22.796Z,57.56
2019-05-07T07:19:52.320Z,53.80
2019-05-07T07:22:22.282Z,53.63
2019-05-07T07:24:53.134Z,51.17
2019-05-07T07:27:22.739Z,49.70
2019-05-07T07:29:56.299Z,44.84
2019-05-07T07:32:31.595Z,43.63
2019-05-07T07:35:02.229Z,44.65
2019-05-07T07:37:35.717Z,40.90
2019-05-07T07:40:25.098Z,39.98
2019-05-07T07:42:55.366Z,38.39
2019-05-07T07:45:24.101Z,35.48
2019-05-07T07:47:53.148Z,36.41
2019-05-07T07:50:22.530Z,36.36
2019-05-07T07:52:52.960Z,35.87
2019-05-07T07:55:23.566Z,36.46
2019-05-07T07:58:02.672Z,37.31
2019-05-07T08:00:49.573Z,34.07
2019-05-07T08:03:18.360Z,35.00
2019-05-07T08:05:47.026Z,35.36
2019-05-07T08:08:15.695Z,36.69
2019-05-07T08:10:44.761Z,36.01
2019-05-07T08:13:13.435Z,35.50
2019-05-07T08:15:43.001Z,32.97
2019-05-07T08:18:12.099Z,31.56
2019-05-07T08:20:42.887Z,29.21
2019-05-07T08:23:12.225Z,28.83
2019-05-07T08:25:52.523Z,29.67
2019-05-07T08:28:23.126Z,28.83
2019-05-07T08:30:59.949Z,27.05
2019-05-07T08:33:32.233Z,28.27
2019-05-07T08:36:14.281Z,29.56
2019-05-07T08:38:55.115Z,27.98
2019-05-07T08:41:26.085Z,27.31
2019-05-07T08:44:08.304Z,27.76
2019-05-07T08:46:29.331Z,26.98
2019-05-07T08:48:58.042Z,24.83
2019-05-07T08:51:26.804Z,27.58
2019-05-07T08:54:07.422Z,26.75
2019-05-07T08:56:37.977Z,25.93
2019-05-07T08:59:08.035Z,25.33
2019-05-07T09:01:38.811Z,25.25
2019-05-07T09:04:07.766Z,25.49
2019-05-07T09:06:36.446Z,24.19
2019-05-07T09:09:13.499Z,23.15
2019-05-07T09:11:42.750Z,24.33
2019-05-07T09:14:12.481Z,23.84
2019-05-07T09:16:42.739Z,23.32
2019-05-07T09:19:12.856Z,24.70
2019-05-07T09:21:42.857Z,24.69
2019-05-07T09:24:12.418Z,23.73
2019-05-07T09:26:59.393Z,22.92
2019-05-07T09:29:32.225Z,22.32
2019-05-07T09:32:18.009Z,23.86
2019-05-07T09:34:48.340Z,24.48
2019-05-07T09:37:22.631Z,24.27
2019-05-07T09:39:51.891Z,22.67
2019-05-07T09:42:22.829Z,20.96
2019-05-07T09:44:52.897Z,21.05
2019-05-07T09:47:22.056Z,20.67
2019-05-07T09:50:04.293Z,21.79
2019-05-07T09:52:22.867Z,21.47
2019-05-07T09:54:52.406Z,22.76
2019-05-07T09:57:30.197Z,22.60
2019-05-07T09:59:53.040Z,22.16
2019-05-07T10:02:22.695Z,20.64
2019-05-07T10:04:52.656Z,20.94
2019-05-07T10:07:22.277Z,19.90
2019-05-07T10:09:52.306Z,20.39
2019-05-07T10:12:25.768Z,17.97
2019-05-07T10:14:54.565Z,17.62
2019-05-07T10:17:41.127Z,16.50
2019-05-07T10:20:19.175Z,17.27
2019-05-07T10:22:42.854Z,17.52
2019-05-07T10:25:12.290Z,18.09
2019-05-07T10:27:41.828Z,16.45
2019-05-07T10:30:12.881Z,16.67
2019-05-07T10:32:42.325Z,16.16
2019-05-07T10:35:12.802Z,17.44
2019-05-07T10:37:42.435Z,15.76
2019-05-07T10:40:12.373Z,17.85
2019-05-07T10:42:43.088Z,16.33
2019-05-07T10:45:14.463Z,17.79
2019-05-07T10:47:53.829Z,19.55
2019-05-07T10:50:35.597Z,18.67
2019-05-07T10:52:54.565Z,19.62
2019-05-07T10:55:23.349Z,19.88
2019-05-07T10:57:52.867Z,19.37
2019-05-07T11:00:24.541Z,19.14
2019-05-07T11:02:53.250Z,17.14
2019-05-07T11:05:22.097Z,16.84
2019-05-07T11:07:50.919Z,18.45
2019-05-07T11:10:21.881Z,18.37
2019-05-07T11:12:51.708Z,17.44
2019-05-07T11:15:22.003Z,17.01
2019-05-07T11:17:52.554Z,17.98
2019-05-07T11:20:22.627Z,16.77
2019-05-07T11:22:52.188Z,16.76
2019-05-07T11:25:22.504Z,17.35
2019-05-07T11:27:52.439Z,16.02
2019-05-07T11:30:22.819Z,17.29
2019-05-07T11:32:52.307Z,17.61
2019-05-07T11:35:23.001Z,15.95
2019-05-07T11:37:52.232Z,17.68
2019-05-07T11:40:23.059Z,18.12
2019-05-07T11:43:05.525Z,19.66
2019-05-07T11:45:44.699Z,17.42
2019-05-07T11:48:13.559Z,19.00
2019-05-07T11:50:54.214Z,19.93
2019-05-07T11:53:19.084Z,21.77
2019-05-07T11:55:47.771Z,19.95
2019-05-07T11:58:16.441Z,22.00
2019-05-07T12:00:55.625Z,20.68
2019-05-07T12:03:24.711Z,20.69
2019-05-07T12:05:53.392Z,20.32
2019-05-07T12:08:26.531Z,21.37
2019-05-07T12:10:52.505Z,20.72
2019-05-07T12:13:21.797Z,19.93
2019-05-07T12:15:52.191Z,18.78
2019-05-07T12:18:22.735Z,17.89
2019-05-07T12:20:53.919Z,18.49
2019-05-07T12:23:22.588Z,18.94
2019-05-07T12:25:52.901Z,20.17
2019-05-07T12:28:22.573Z,22.25
2019-05-07T12:30:53.114Z,23.22
2019-05-07T12:33:39.600Z,22.29
2019-05-07T12:36:12.453Z,22.90
2019-05-07T12:38:41.711Z,23.65
2019-05-07T12:41:28.547Z,24.69
2019-05-07T12:43:57.905Z,24.98
2019-05-07T12:46:27.129Z,25.42
2019-05-07T12:48:55.787Z,25.17
2019-05-07T12:51:36.332Z,25.90
2019-05-07T12:53:58.380Z,26.31
2019-05-07T12:56:27.149Z,26.61
2019-05-07T12:58:56.888Z,27.61
2019-05-07T13:01:43.666Z,27.70
2019-05-07T13:04:21.994Z,28.10
2019-05-07T13:06:57.586Z,28.61
2019-05-07T13:09:26.333Z,28.29
2019-05-07T13:11:55.046Z,26.54
2019-05-07T13:14:23.878Z,24.67
2019-05-07T13:16:52.650Z,25.22
2019-05-07T13:19:22.574Z,25.34
2019-05-07T13:21:51.507Z,24.14
2019-05-07T13:24:22.627Z,24.99
2019-05-07T13:26:51.887Z,24.88
2019-05-07T13:29:22.209Z,24.88
2019-05-07T13:31:54.417Z,25.07
2019-05-07T13:34:23.544Z,26.58
2019-05-07T13:36:54.799Z,25.76
2019-05-07T13:39:28.384Z,26.16
2019-05-07T13:41:58.707Z,25.40
2019-05-07T13:44:29.040Z,25.10
2019-05-07T13:47:15.991Z,24.99
2019-05-07T13:49:45.256Z,25.66
2019-05-07T13:52:14.027Z,24.63
2019-05-07T13:54:42.779Z,25.25
2019-05-07T13:57:12.031Z,25.79
2019-05-07T13:59:42.423Z,25.10
2019-05-07T14:02:15.419Z,26.08
2019-05-07T14:04:43.207Z,27.20
2019-05-07T14:07:12.618Z,27.20
2019-05-07T14:09:42.034Z,28.47
2019-05-07T14:12:12.328Z,28.03
2019-05-07T14:14:42.626Z,28.68
2019-05-07T14:17:12.695Z,28.42
2019-05-07T14:19:42.266Z,28.26
2019-05-07T14:22:16.306Z,28.83
2019-05-07T14:24:42.245Z,29.77
2019-05-07T14:27:10.948Z,30.34
2019-05-07T14:29:39.719Z,30.01
2019-05-07T14:32:16.039Z,30.68
2019-05-07T14:34:58.681Z,31.35
2019-05-07T14:37:28.982Z,31.39
2019-05-07T14:39:57.702Z,31.75
2019-05-07T14:42:32.872Z,31.70
2019-05-07T14:45:01.438Z,30.19
2019-05-07T14:47:30.161Z,30.62
2019-05-07T14:49:58.855Z,29.60
2019-05-07T14:52:32.228Z,30.14
2019-05-07T14:54:58.274Z,30.80
2019-05-07T14:57:26.932Z,30.14
2019-05-07T14:59:55.713Z,30.61
2019-05-07T15:02:24.373Z,30.37
2019-05-07T15:04:53.155Z,30.83
2019-05-07T15:07:22.715Z,31.83
2019-05-07T15:09:51.961Z,31.65
2019-05-07T15:12:23.063Z,31.81
2019-05-07T15:14:52.747Z,31.54
2019-05-07T15:17:25.011Z,31.84
2019-05-07T15:19:53.708Z,32.01
2019-05-07T15:22:47.146Z,31.69
2019-05-07T15:25:15.161Z,31.17
2019-05-07T15:27:45.089Z,30.00
2019-05-07T15:30:14.028Z,30.10
2019-05-07T15:32:42.904Z,30.27
2019-05-07T15:35:12.583Z,30.33
2019-05-07T15:37:42.704Z,30.37
2019-05-07T15:40:14.668Z,30.65
2019-05-07T15:42:43.607Z,31.15
2019-05-07T15:45:12.721Z,32.11
2019-05-07T15:47:43.263Z,32.03
2019-05-07T15:50:12.875Z,31.90
2019-05-07T15:52:57.645Z,32.00
2019-05-07T15:55:16.687Z,31.84
2019-05-07T15:57:45.371Z,32.16
2019-05-07T16:00:16.047Z,32.33
2019-05-07T16:02:46.364Z,32.96
2019-05-07T16:05:15.468Z,32.64
2019-05-07T16:07:45.486Z,33.60
2019-05-07T16:10:15.165Z,32.16
2019-05-07T16:12:44.125Z,32.12
2019-05-07T16:15:13.846Z,31.80
2019-05-07T16:17:59.650Z,32.37
2019-05-07T16:20:28.370Z,33.08
2019-05-07T16:23:11.374Z,33.93
2019-05-07T16:25:29.175Z,33.80
2019-05-07T16:27:57.940Z,34.46
2019-05-07T16:30:26.996Z,35.01
2019-05-07T16:32:55.667Z,34.92
2019-05-07T16:35:24.433Z,34.53
2019-05-07T16:37:53.188Z,34.29
2019-05-07T16:40:22.975Z,34.73
2019-05-07T16:42:52.399Z,34.77
2019-05-07T16:45:21.900Z,34.97
2019-05-07T16:47:52.130Z,35.13
2019-05-07T16:50:22.405Z,35.79
2019-05-07T16:52:52.384Z,35.44
2019-05-07T16:55:22.443Z,35.33
2019-05-07T16:58:01.950Z,34.68
2019-05-07T17:00:32.426Z,34.39
2019-05-07T17:03:03.493Z,34.65
2019-05-07T17:05:35.164Z,34.31
2019-05-07T17:08:05.507Z,34.85
2019-05-07T17:10:34.274Z,35.38
2019-05-07T17:13:03.051Z,35.03
2019-05-07T17:15:33.480Z,35.28
2019-05-07T17:18:02.729Z,35.53
2019-05-07T17:20:32.862Z,35.66
2019-05-07T17:23:02.969Z,36.03
2019-05-07T17:25:37.837Z,36.17
2019-05-07T17:28:07.963Z,36.13
2019-05-07T17:30:37.726Z,35.85
2019-05-07T17:33:06.959Z,36.01
2019-05-07T17:35:37.139Z,36.40
2019-05-07T17:38:09.431Z,36.90
2019-05-07T17:40:36.288Z,37.29
2019-05-07T17:43:05.174Z,37.91
2019-05-07T17:45:35.705Z,37.12
2019-05-07T17:48:04.705Z,37.48
2019-05-07T17:50:37.886Z,37.12
2019-05-07T17:53:06.853Z,37.18
2019-05-07T17:55:35.589Z,37.27
2019-05-07T17:58:04.355Z,37.37
2019-05-07T18:00:33.085Z,37.24
2019-05-07T18:03:06.342Z,37.33
2019-05-07T18:05:35.077Z,37.53
2019-05-07T18:08:03.843Z,37.23
2019-05-07T18:10:32.495Z,37.29
2019-05-07T18:13:01.273Z,37.85
2019-05-07T18:15:32.119Z,38.56
2019-05-07T18:18:05.082Z,38.85
2019-05-07T18:20:33.827Z,39.36
2019-05-07T18:23:02.781Z,40.93
2019-05-07T18:25:32.381Z,40.98
2019-05-07T18:28:01.818Z,42.11
2019-05-07T18:30:32.681Z,43.09
2019-05-07T18:33:15.210Z,43.59
2019-05-07T18:35:46.150Z,43.69
2019-05-07T18:38:14.835Z,43.61
2019-05-07T18:40:43.588Z,43.66
2019-05-07T18:43:12.417Z,44.01
2019-05-07T18:45:41.085Z,44.05
2019-05-07T18:48:11.771Z,44.35
2019-05-07T18:50:41.992Z,44.83
2019-05-07T18:53:12.195Z,45.23
2019-05-07T18:55:42.357Z,45.51
2019-05-07T18:58:13.301Z,45.53
2019-05-07T19:00:43.352Z,45.71
2019-05-07T19:03:12.895Z,46.06
2019-05-07T19:05:42.428Z,46.50
2019-05-07T19:08:12.629Z,47.13
2019-05-07T19:10:42.935Z,47.88
2019-05-07T19:13:11.800Z,48.26
2019-05-07T19:15:42.020Z,48.02
2019-05-07T19:18:12.051Z,48.00
2019-05-07T19:20:42.345Z,48.26
2019-05-07T19:23:11.070Z,49.10
2019-05-07T19:25:41.935Z,49.30
2019-05-07T19:28:14.378Z,49.79
2019-05-07T19:30:42.085Z,50.17
2019-05-07T19:33:12.293Z,50.30
2019-05-07T19:35:41.910Z,50.26
2019-05-07T19:38:10.732Z,49.94
2019-05-07T19:40:39.429Z,49.96
2019-05-07T19:43:08.097Z,50.19
2019-05-07T19:45:37.264Z,50.40
2019-05-07T19:48:05.916Z,51.29
2019-05-07T19:50:35.303Z,51.80
2019-05-07T19:53:04.004Z,51.71
2019-05-07T19:55:34.358Z,51.65
2019-05-07T19:58:04.714Z,51.47
2019-05-07T20:00:35.289Z,51.75
2019-05-07T20:03:04.170Z,51.84
2019-05-07T20:05:32.949Z,51.98
2019-05-07T20:08:04.247Z,52.24
2019-05-07T20:10:36.668Z,52.74
2019-05-07T20:13:05.429Z,53.26
2019-05-07T20:15:35.251Z,52.65
2019-05-07T20:18:03.950Z,53.24
2019-05-07T20:20:33.246Z,53.48
2019-05-07T20:23:02.698Z,53.86
2019-05-07T20:25:33.267Z,54.45
2019-05-07T20:28:02.277Z,53.87
2019-05-07T20:30:32.474Z,53.56
2019-05-07T20:33:03.056Z,53.58
2019-05-07T20:35:32.656Z,53.91
2019-05-07T20:38:02.925Z,54.22
2019-05-07T20:40:32.510Z,54.88
2019-05-07T20:43:02.016Z,55.27
2019-05-07T20:45:32.012Z,55.64
2019-05-07T20:48:02.587Z,55.81
2019-05-07T20:50:33.234Z,55.10
2019-05-07T20:53:02.088Z,55.18
2019-05-07T20:55:34.114Z,55.57
2019-05-07T20:58:03.320Z,56.09
2019-05-07T21:00:32.705Z,56.35
2019-05-07T21:03:20.043Z,56.97
2019-05-07T21:05:53.002Z,56.58
2019-05-07T21:08:22.721Z,56.53
2019-05-07T21:10:53.540Z,56.58
2019-05-07T21:13:30.856Z,56.66
2019-05-07T21:15:55.996Z,56.52
2019-05-07T21:18:24.714Z,56.64
2019-05-07T21:20:53.396Z,56.64
2019-05-07T21:23:23.069Z,56.30
2019-05-07T21:25:52.700Z,56.39
2019-05-07T21:28:21.894Z,56.27
2019-05-07T21:30:52.197Z,56.47
2019-05-07T21:33:22.816Z,56.44
2019-05-07T21:35:52.294Z,56.32
2019-05-07T21:38:22.407Z,56.19
2019-05-07T21:40:51.412Z,56.15
2019-05-07T21:43:22.246Z,56.19
2019-05-07T21:45:52.999Z,56.24
2019-05-07T21:48:22.436Z,56.07
2019-05-07T21:50:51.972Z,55.99
2019-05-07T21:53:25.128Z,56.00
2019-05-07T21:56:04.725Z,55.77
2019-05-07T21:58:33.769Z,55.60
2019-05-07T22:01:04.092Z,55.67
2019-05-07T22:03:34.965Z,55.97
2019-05-07T22:06:03.427Z,55.59
2019-05-07T22:08:32.686Z,55.32
2019-05-07T22:11:02.527Z,55.08
2019-05-07T22:13:32.924Z,55.29
2019-05-07T22:16:02.515Z,55.46
2019-05-07T22:18:31.955Z,55.20
2019-05-07T22:21:02.981Z,55.09
2019-05-07T22:23:32.305Z,55.35
2019-05-07T22:26:17.612Z,55.63
2019-05-07T22:28:32.642Z,55.71
2019-05-07T22:31:15.692Z,56.43
2019-05-07T22:33:48.775Z,56.52
2019-05-07T22:36:17.458Z,57.29
2019-05-07T22:38:46.105Z,57.39
2019-05-07T22:41:14.795Z,57.43
2019-05-07T22:43:43.519Z,57.54
2019-05-07T22:46:12.577Z,57.36
2019-05-07T22:48:41.949Z,57.32
2019-05-07T22:51:12.221Z,57.44
2019-05-07T22:53:41.023Z,57.02
2019-05-07T22:56:09.768Z,56.86
2019-05-07T23:01:22.673Z,57.65
2019-05-07T23:03:51.820Z,57.61
2019-05-07T23:06:23.176Z,57.45
2019-05-07T23:08:52.985Z,57.23
2019-05-07T23:11:22.886Z,57.51
2019-05-07T23:13:52.444Z,57.87
2019-05-07T23:16:23.183Z,58.38
2019-05-07T23:18:52.148Z,58.31
2019-05-07T23:21:24.312Z,58.36
2019-05-07T23:23:52.749Z,58.46
2019-05-07T23:26:23.374Z,58.41
2019-05-07T23:28:52.067Z,58.18
2019-05-07T23:31:22.815Z,58.65
2019-05-07T23:33:52.364Z,58.80
2019-05-07T23:36:22.530Z,59.44
2019-05-07T23:38:52.193Z,59.83
2019-05-07T23:41:25.847Z,60.16
2019-05-07T23:44:12.507Z,60.17
2019-05-07T23:46:44.416Z,60.18
2019-05-07T23:49:12.485Z,60.02
2019-05-07T23:51:42.112Z,60.11
2019-05-07T23:54:12.114Z,59.37
2019-05-07T23:56:42.820Z,59.11
2019-05-07T23:59:14.498Z,59.49
